sensor_id;sensor_type;location;lat;lon;timestamp;pressure;altitude;pressure_sealevel;temperature;humidity
59767;BME280;46248;58.364;25.582;2022-09-17T00:00:30;98124.38;;;9.53;94.30
59767;BME280;46248;58.364;25.582;2022-09-17T00:03:57;98114.06;;;9.51;94.18
59767;BME280;46248;58.364;25.582;2022-09-17T00:07:24;98114.06;;;9.51;94.21
59767;BME280;46248;58.364;25.582;2022-09-17T00:10:47;98114.72;;;9.44;94.19
59767;BME280;46248;58.364;25.582;2022-09-17T00:14:14;98121.19;;;9.49;94.27
59767;BME280;46248;58.364;25.582;2022-09-17T00:17:38;98120.94;;;9.52;94.39
59767;BME280;46248;58.364;25.582;2022-09-17T00:21:03;98122.72;;;9.52;94.06
59767;BME280;46248;58.364;25.582;2022-09-17T00:24:26;98125.22;;;9.53;93.94
59767;BME280;46248;58.364;25.582;2022-09-17T00:27:49;98117.38;;;9.53;94.24
59767;BME280;46248;58.364;25.582;2022-09-17T00:31:12;98120.69;;;9.55;94.03
59767;BME280;46248;58.364;25.582;2022-09-17T00:34:35;98127.56;;;9.56;94.07
59767;BME280;46248;58.364;25.582;2022-09-17T00:37:59;98126.03;;;9.54;94.04
59767;BME280;46248;58.364;25.582;2022-09-17T00:41:26;98118.47;;;9.51;94.29
59767;BME280;46248;58.364;25.582;2022-09-17T00:44:51;98128.25;;;9.58;94.23
59767;BME280;46248;58.364;25.582;2022-09-17T00:48:21;98135.00;;;9.61;94.27
59767;BME280;46248;58.364;25.582;2022-09-17T00:51:48;98112.72;;;9.57;94.39
59767;BME280;46248;58.364;25.582;2022-09-17T00:55:25;98118.09;;;9.65;94.25
59767;BME280;46248;58.364;25.582;2022-09-17T00:58:49;98120.72;;;9.65;94.11
59767;BME280;46248;58.364;25.582;2022-09-17T01:02:13;98114.66;;;9.64;93.87
59767;BME280;46248;58.364;25.582;2022-09-17T01:05:47;98118.25;;;9.63;94.08
59767;BME280;46248;58.364;25.582;2022-09-17T01:09:25;98134.88;;;9.62;94.07
59767;BME280;46248;58.364;25.582;2022-09-17T01:13:08;98122.50;;;9.64;94.29
59767;BME280;46248;58.364;25.582;2022-09-17T01:16:40;98121.56;;;9.66;94.28
59767;BME280;46248;58.364;25.582;2022-09-17T01:24:25;98119.63;;;9.68;94.43
59767;BME280;46248;58.364;25.582;2022-09-17T01:28:23;98129.13;;;9.69;94.64
59767;BME280;46248;58.364;25.582;2022-09-17T01:31:57;98117.97;;;9.67;94.70
59767;BME280;46248;58.364;25.582;2022-09-17T01:35:26;98118.81;;;9.67;94.80
59767;BME280;46248;58.364;25.582;2022-09-17T01:39:01;98125.81;;;9.67;94.77
59767;BME280;46248;58.364;25.582;2022-09-17T01:42:29;98114.66;;;9.64;94.99
59767;BME280;46248;58.364;25.582;2022-09-17T01:46:02;98119.88;;;9.64;95.07
59767;BME280;46248;58.364;25.582;2022-09-17T01:49:34;98128.03;;;9.71;95.21
59767;BME280;46248;58.364;25.582;2022-09-17T01:53:02;98130.53;;;9.73;95.19
59767;BME280;46248;58.364;25.582;2022-09-17T01:56:28;98130.41;;;9.74;95.42
59767;BME280;46248;58.364;25.582;2022-09-17T01:59:57;98133.97;;;9.73;95.30
59767;BME280;46248;58.364;25.582;2022-09-17T02:03:24;98125.41;;;9.71;95.33
59767;BME280;46248;58.364;25.582;2022-09-17T02:06:55;98125.19;;;9.74;95.53
59767;BME280;46248;58.364;25.582;2022-09-17T02:10:22;98131.22;;;9.75;95.45
59767;BME280;46248;58.364;25.582;2022-09-17T02:13:53;98117.97;;;9.67;95.23
59767;BME280;46248;58.364;25.582;2022-09-17T02:17:22;98126.25;;;9.72;95.10
59767;BME280;46248;58.364;25.582;2022-09-17T02:20:53;98126.38;;;9.70;95.24
59767;BME280;46248;58.364;25.582;2022-09-17T02:24:23;98127.34;;;9.69;95.28
59767;BME280;46248;58.364;25.582;2022-09-17T02:27:53;98122.25;;;9.68;95.12
59767;BME280;46248;58.364;25.582;2022-09-17T02:31:18;98125.66;;;9.68;95.19
59767;BME280;46248;58.364;25.582;2022-09-17T02:34:42;98128.16;;;9.70;95.33
59767;BME280;46248;58.364;25.582;2022-09-17T02:38:04;98120.84;;;9.63;95.38
59767;BME280;46248;58.364;25.582;2022-09-17T02:41:37;98140.16;;;9.72;95.40
59767;BME280;46248;58.364;25.582;2022-09-17T02:45:12;98140.16;;;9.72;95.36
59767;BME280;46248;58.364;25.582;2022-09-17T02:48:55;98139.34;;;9.72;95.41
59767;BME280;46248;58.364;25.582;2022-09-17T02:52:31;98139.34;;;9.72;95.74
59767;BME280;46248;58.364;25.582;2022-09-17T02:56:00;98135.88;;;9.71;95.67
59767;BME280;46248;58.364;25.582;2022-09-17T02:59:31;98143.84;;;9.70;95.59
59767;BME280;46248;58.364;25.582;2022-09-17T03:02:58;98148.25;;;9.69;95.53
59767;BME280;46248;58.364;25.582;2022-09-17T03:06:23;98146.72;;;9.67;95.48
59767;BME280;46248;58.364;25.582;2022-09-17T03:09:46;98139.16;;;9.63;95.48
59767;BME280;46248;58.364;25.582;2022-09-17T03:13:09;98144.22;;;9.65;95.62
59767;BME280;46248;58.364;25.582;2022-09-17T03:16:33;98144.38;;;9.63;95.54
59767;BME280;46248;58.364;25.582;2022-09-17T03:19:56;98145.34;;;9.62;95.63
59767;BME280;46248;58.364;25.582;2022-09-17T03:23:20;98142.84;;;9.61;95.38
59767;BME280;46248;58.364;25.582;2022-09-17T03:26:42;98146.44;;;9.60;95.43
59767;BME280;46248;58.364;25.582;2022-09-17T03:30:08;98150.13;;;9.57;95.27
59767;BME280;46248;58.364;25.582;2022-09-17T03:33:32;98142.66;;;9.53;94.96
59767;BME280;46248;58.364;25.582;2022-09-17T03:36:55;98146.25;;;9.52;94.91
59767;BME280;46248;58.364;25.582;2022-09-17T03:40:18;98153.50;;;9.48;94.74
59767;BME280;46248;58.364;25.582;2022-09-17T03:43:41;98146.75;;;9.46;94.61
59767;BME280;46248;58.364;25.582;2022-09-17T03:47:04;98150.34;;;9.45;94.76
59767;BME280;46248;58.364;25.582;2022-09-17T03:50:29;98143.84;;;9.39;94.56
59767;BME280;46248;58.364;25.582;2022-09-17T03:53:52;98150.16;;;9.36;94.45
59767;BME280;46248;58.364;25.582;2022-09-17T03:57:15;98154.66;;;9.34;94.36
59767;BME280;46248;58.364;25.582;2022-09-17T04:00:38;98152.31;;;9.31;94.38
59767;BME280;46248;58.364;25.582;2022-09-17T04:04:02;98143.09;;;9.27;94.43
59767;BME280;46248;58.364;25.582;2022-09-17T04:07:26;98158.34;;;9.32;94.88
59767;BME280;46248;58.364;25.582;2022-09-17T04:10:49;98145.44;;;9.30;95.14
59767;BME280;46248;58.364;25.582;2022-09-17T04:14:13;98145.28;;;9.32;95.30
59767;BME280;46248;58.364;25.582;2022-09-17T04:17:36;98153.84;;;9.34;94.95
59767;BME280;46248;58.364;25.582;2022-09-17T04:20:59;98155.25;;;9.38;95.18
59767;BME280;46248;58.364;25.582;2022-09-17T04:24:23;98157.72;;;9.39;94.97
59767;BME280;46248;58.364;25.582;2022-09-17T04:27:48;98160.22;;;9.41;95.04
59767;BME280;46248;58.364;25.582;2022-09-17T04:31:11;98150.59;;;9.42;94.55
59767;BME280;46248;58.364;25.582;2022-09-17T04:34:34;98160.06;;;9.43;94.45
59767;BME280;46248;58.364;25.582;2022-09-17T04:37:57;98159.00;;;9.45;94.81
59767;BME280;46248;58.364;25.582;2022-09-17T04:41:22;98158.75;;;9.48;94.56
59767;BME280;46248;58.364;25.582;2022-09-17T04:44:46;98159.31;;;9.52;94.77
59767;BME280;46248;58.364;25.582;2022-09-17T04:48:08;98158.75;;;9.48;94.29
59767;BME280;46248;58.364;25.582;2022-09-17T04:51:31;98159.19;;;9.53;94.63
59767;BME280;46248;58.364;25.582;2022-09-17T04:54:54;98159.75;;;9.57;94.35
59767;BME280;46248;58.364;25.582;2022-09-17T04:58:19;98166.34;;;9.61;94.25
59767;BME280;46248;58.364;25.582;2022-09-17T05:01:42;98167.88;;;9.63;94.23
59767;BME280;46248;58.364;25.582;2022-09-17T05:05:05;98170.94;;;9.69;94.04
59767;BME280;46248;58.364;25.582;2022-09-17T05:08:29;98167.47;;;9.68;93.85
59767;BME280;46248;58.364;25.582;2022-09-17T05:11:53;98176.47;;;9.75;93.86
59767;BME280;46248;58.364;25.582;2022-09-17T05:15:18;98179.28;;;9.83;94.08
59767;BME280;46248;58.364;25.582;2022-09-17T05:18:41;98176.16;;;9.99;94.90
59767;BME280;46248;58.364;25.582;2022-09-17T05:22:04;98172.47;;;10.12;94.26
59767;BME280;46248;58.364;25.582;2022-09-17T05:25:27;98174.69;;;10.16;93.37
59767;BME280;46248;58.364;25.582;2022-09-17T05:28:50;98161.59;;;10.16;92.68
59767;BME280;46248;58.364;25.582;2022-09-17T05:32:15;98163.34;;;10.27;92.95
59767;BME280;46248;58.364;25.582;2022-09-17T05:35:38;98169.56;;;10.45;93.15
59767;BME280;46248;58.364;25.582;2022-09-17T05:39:01;98172.88;;;10.57;91.64
59767;BME280;46248;58.364;25.582;2022-09-17T05:42:24;98164.66;;;10.71;91.58
59767;BME280;46248;58.364;25.582;2022-09-17T05:45:47;98167.53;;;10.88;90.59
59767;BME280;46248;58.364;25.582;2022-09-17T05:49:13;98168.34;;;10.98;89.86
59767;BME280;46248;58.364;25.582;2022-09-17T05:52:36;98167.25;;;11.00;89.07
59767;BME280;46248;58.364;25.582;2022-09-17T05:56:00;98166.16;;;11.03;89.04
59767;BME280;46248;58.364;25.582;2022-09-17T05:59:23;98168.75;;;11.13;89.35
59767;BME280;46248;58.364;25.582;2022-09-17T06:02:53;98172.03;;;11.24;89.38
59767;BME280;46248;58.364;25.582;2022-09-17T06:06:18;98169.97;;;11.38;88.68
59767;BME280;46248;58.364;25.582;2022-09-17T06:09:41;98171.75;;;11.47;87.46
59767;BME280;46248;58.364;25.582;2022-09-17T06:13:04;98177.09;;;11.55;87.27
59767;BME280;46248;58.364;25.582;2022-09-17T06:16:27;98178.34;;;11.51;86.47
59767;BME280;46248;58.364;25.582;2022-09-17T06:19:52;98177.13;;;11.45;86.93
59767;BME280;46248;58.364;25.582;2022-09-17T06:23:15;98187.06;;;11.42;86.78
59767;BME280;46248;58.364;25.582;2022-09-17T06:26:38;98172.31;;;11.41;87.19
59767;BME280;46248;58.364;25.582;2022-09-17T06:30:01;98183.06;;;11.38;87.13
59767;BME280;46248;58.364;25.582;2022-09-17T06:33:24;98170.78;;;11.38;87.96
59767;BME280;46248;58.364;25.582;2022-09-17T06:36:48;98179.88;;;11.44;87.75
59767;BME280;46248;58.364;25.582;2022-09-17T06:40:13;98174.63;;;11.54;87.63
59767;BME280;46248;58.364;25.582;2022-09-17T06:43:36;98178.19;;;11.62;87.84
59767;BME280;46248;58.364;25.582;2022-09-17T06:46:59;98177.28;;;11.81;88.23
59767;BME280;46248;58.364;25.582;2022-09-17T06:50:22;98178.63;;;11.95;87.05
59767;BME280;46248;58.364;25.582;2022-09-17T06:53:45;98194.06;;;12.08;86.22
59767;BME280;46248;58.364;25.582;2022-09-17T06:57:10;98187.41;;;12.13;85.83
59767;BME280;46248;58.364;25.582;2022-09-17T07:00:33;98195.53;;;12.20;85.43
59767;BME280;46248;58.364;25.582;2022-09-17T07:03:56;98193.81;;;12.29;86.04
59767;BME280;46248;58.364;25.582;2022-09-17T07:07:19;98193.88;;;12.47;85.88
59767;BME280;46248;58.364;25.582;2022-09-17T07:10:42;98194.63;;;12.57;85.07
59767;BME280;46248;58.364;25.582;2022-09-17T07:14:07;98192.81;;;12.57;84.56
59767;BME280;46248;58.364;25.582;2022-09-17T07:17:30;98189.13;;;12.50;84.58
59767;BME280;46248;58.364;25.582;2022-09-17T07:20:53;98191.53;;;12.44;84.37
59767;BME280;46248;58.364;25.582;2022-09-17T07:24:16;98193.06;;;12.36;84.25
59767;BME280;46248;58.364;25.582;2022-09-17T07:27:41;98184.34;;;12.18;85.10
59767;BME280;46248;58.364;25.582;2022-09-17T07:31:06;98194.44;;;12.13;85.78
59767;BME280;46248;58.364;25.582;2022-09-17T07:34:35;98207.34;;;11.97;85.86
59767;BME280;46248;58.364;25.582;2022-09-17T07:37:58;98205.44;;;11.89;85.90
59767;BME280;46248;58.364;25.582;2022-09-17T07:41:22;98202.53;;;11.82;87.00
59767;BME280;46248;58.364;25.582;2022-09-17T07:44:45;98203.50;;;11.81;87.10
59767;BME280;46248;58.364;25.582;2022-09-17T07:48:09;98199.53;;;11.77;87.50
59767;BME280;46248;58.364;25.582;2022-09-17T07:51:33;98194.41;;;11.76;87.29
59767;BME280;46248;58.364;25.582;2022-09-17T07:54:56;98199.81;;;11.74;87.51
59767;BME280;46248;58.364;25.582;2022-09-17T07:58:19;98198.44;;;11.70;86.98
59767;BME280;46248;58.364;25.582;2022-09-17T08:01:42;98206.72;;;11.65;87.30
59767;BME280;46248;58.364;25.582;2022-09-17T08:05:08;98212.09;;;11.64;87.45
59767;BME280;46248;58.364;25.582;2022-09-17T08:08:32;98205.09;;;11.55;88.10
59767;BME280;46248;58.364;25.582;2022-09-17T08:11:56;98213.50;;;11.58;88.09
59767;BME280;46248;58.364;25.582;2022-09-17T08:15:21;98201.91;;;11.61;87.76
59767;BME280;46248;58.364;25.582;2022-09-17T08:18:45;98196.66;;;11.61;88.44
59767;BME280;46248;58.364;25.582;2022-09-17T08:22:10;98198.38;;;11.80;88.97
59767;BME280;46248;58.364;25.582;2022-09-17T08:25:32;98190.63;;;11.98;89.16
59767;BME280;46248;58.364;25.582;2022-09-17T08:28:56;98204.31;;;12.29;88.63
59767;BME280;46248;58.364;25.582;2022-09-17T08:32:19;98197.25;;;12.57;88.21
59767;BME280;46248;58.364;25.582;2022-09-17T08:35:42;98195.53;;;12.83;87.49
59767;BME280;46248;58.364;25.582;2022-09-17T08:39:06;98201.97;;;13.07;85.76
59767;BME280;46248;58.364;25.582;2022-09-17T08:42:36;98188.50;;;13.02;85.01
59767;BME280;46248;58.364;25.582;2022-09-17T08:46:03;98199.34;;;13.07;85.96
59767;BME280;46248;58.364;25.582;2022-09-17T08:49:33;98194.84;;;13.17;85.63
59767;BME280;46248;58.364;25.582;2022-09-17T08:53:15;98191.19;;;13.28;85.56
59767;BME280;46248;58.364;25.582;2022-09-17T08:56:50;98195.50;;;13.37;85.08
59767;BME280;46248;58.364;25.582;2022-09-17T09:00:23;98185.31;;;13.34;84.56
59767;BME280;46248;58.364;25.582;2022-09-17T09:04:13;98187.44;;;13.31;84.89
59767;BME280;46248;58.364;25.582;2022-09-17T09:07:44;98189.19;;;13.48;87.48
59767;BME280;46248;58.364;25.582;2022-09-17T09:11:12;98189.22;;;13.74;86.99
59767;BME280;46248;58.364;25.582;2022-09-17T09:14:41;98183.88;;;13.92;84.68
59767;BME280;46248;58.364;25.582;2022-09-17T09:18:15;98193.97;;;14.13;84.51
59767;BME280;46248;58.364;25.582;2022-09-17T09:21:45;98183.53;;;14.29;82.61
59767;BME280;46248;58.364;25.582;2022-09-17T09:25:20;98178.47;;;14.36;80.99
59767;BME280;46248;58.364;25.582;2022-09-17T09:29:04;98198.25;;;14.48;81.13
59767;BME280;46248;58.364;25.582;2022-09-17T09:32:50;98201.75;;;14.57;80.39
59767;BME280;46248;58.364;25.582;2022-09-17T09:36:17;98202.81;;;14.80;80.79
59767;BME280;46248;58.364;25.582;2022-09-17T09:39:46;98197.22;;;15.08;78.18
59767;BME280;46248;58.364;25.582;2022-09-17T09:43:18;98190.81;;;15.10;76.44
59767;BME280;46248;58.364;25.582;2022-09-17T09:47:06;98185.19;;;15.22;78.97
59767;BME280;46248;58.364;25.582;2022-09-17T09:50:42;98192.44;;;15.36;77.72
59767;BME280;46248;58.364;25.582;2022-09-17T09:54:36;98194.25;;;15.35;75.91
59767;BME280;46248;58.364;25.582;2022-09-17T09:58:08;98199.19;;;15.39;76.63
59767;BME280;46248;58.364;25.582;2022-09-17T10:01:40;98203.16;;;15.43;75.79
59767;BME280;46248;58.364;25.582;2022-09-17T10:05:06;98202.03;;;15.37;73.54
59767;BME280;46248;58.364;25.582;2022-09-17T10:08:33;98193.63;;;15.25;75.27
59767;BME280;46248;58.364;25.582;2022-09-17T10:12:02;98201.69;;;15.32;76.25
59767;BME280;46248;58.364;25.582;2022-09-17T10:15:27;98209.94;;;15.37;75.69
59767;BME280;46248;58.364;25.582;2022-09-17T10:18:55;98196.91;;;15.27;75.36
59767;BME280;46248;58.364;25.582;2022-09-17T10:22:34;98199.88;;;15.08;74.58
59767;BME280;46248;58.364;25.582;2022-09-17T10:25:59;98210.88;;;14.87;76.16
59767;BME280;46248;58.364;25.582;2022-09-17T10:29:22;98202.75;;;14.64;77.39
59767;BME280;46248;58.364;25.582;2022-09-17T10:33:10;98204.53;;;14.55;77.69
59767;BME280;46248;58.364;25.582;2022-09-17T10:36:41;98208.41;;;14.35;78.76
59767;BME280;46248;58.364;25.582;2022-09-17T10:40:27;98199.81;;;13.90;79.73
59767;BME280;46248;58.364;25.582;2022-09-17T10:43:53;98218.22;;;13.64;81.29
59767;BME280;46248;58.364;25.582;2022-09-17T10:47:20;98211.88;;;13.49;82.59
59767;BME280;46248;58.364;25.582;2022-09-17T10:50:47;98210.78;;;13.34;83.21
59767;BME280;46248;58.364;25.582;2022-09-17T10:58:14;98221.06;;;13.09;85.10
59767;BME280;46248;58.364;25.582;2022-09-17T11:01:51;98223.38;;;13.12;84.96
59767;BME280;46248;58.364;25.582;2022-09-17T11:05:32;98220.63;;;13.14;84.96
59767;BME280;46248;58.364;25.582;2022-09-17T11:09:06;98222.16;;;13.24;84.77
59767;BME280;46248;58.364;25.582;2022-09-17T11:12:45;98223.78;;;13.35;85.18
59767;BME280;46248;58.364;25.582;2022-09-17T11:16:17;98224.06;;;13.32;84.68
59767;BME280;46248;58.364;25.582;2022-09-17T11:19:51;98222.88;;;13.26;84.65
59767;BME280;46248;58.364;25.582;2022-09-17T11:23:30;98232.28;;;13.29;84.88
59767;BME280;46248;58.364;25.582;2022-09-17T11:27:04;98231.34;;;13.38;85.36
59767;BME280;46248;58.364;25.582;2022-09-17T11:30:38;98224.44;;;13.37;84.17
59767;BME280;46248;58.364;25.582;2022-09-17T11:34:21;98237.66;;;13.45;84.76
59767;BME280;46248;58.364;25.582;2022-09-17T11:37:50;98238.22;;;13.57;84.72
59767;BME280;46248;58.364;25.582;2022-09-17T11:41:22;98228.41;;;13.59;83.93
59767;BME280;46248;58.364;25.582;2022-09-17T11:44:49;98236.22;;;13.51;84.30
59767;BME280;46248;58.364;25.582;2022-09-17T11:48:17;98224.59;;;13.36;84.30
59767;BME280;46248;58.364;25.582;2022-09-17T11:51:45;98234.13;;;13.37;84.52
59767;BME280;46248;58.364;25.582;2022-09-17T11:55:20;98227.00;;;13.29;84.91
59767;BME280;46248;58.364;25.582;2022-09-17T11:58:48;98221.50;;;13.22;84.81
59767;BME280;46248;58.364;25.582;2022-09-17T12:02:20;98217.47;;;13.10;84.24
59767;BME280;46248;58.364;25.582;2022-09-17T12:05:49;98231.03;;;13.05;85.53
59767;BME280;46248;58.364;25.582;2022-09-17T12:09:17;98230.22;;;13.05;86.05
59767;BME280;46248;58.364;25.582;2022-09-17T12:12:49;98230.06;;;13.06;86.01
59767;BME280;46248;58.364;25.582;2022-09-17T12:16:18;98241.13;;;13.10;85.46
59767;BME280;46248;58.364;25.582;2022-09-17T12:19:45;98245.28;;;13.21;86.35
59767;BME280;46248;58.364;25.582;2022-09-17T12:23:13;98252.19;;;13.22;85.72
59767;BME280;46248;58.364;25.582;2022-09-17T12:26:51;98248.16;;;13.27;85.67
59767;BME280;46248;58.364;25.582;2022-09-17T12:30:20;98246.22;;;13.29;85.14
59767;BME280;46248;58.364;25.582;2022-09-17T12:33:48;98241.97;;;13.28;85.35
59767;BME280;46248;58.364;25.582;2022-09-17T12:37:20;98249.25;;;13.35;85.00
59767;BME280;46248;58.364;25.582;2022-09-17T12:40:50;98247.25;;;13.37;85.00
59767;BME280;46248;58.364;25.582;2022-09-17T12:44:36;98246.66;;;13.43;85.05
59767;BME280;46248;58.364;25.582;2022-09-17T12:48:25;98245.81;;;13.60;85.39
59767;BME280;46248;58.364;25.582;2022-09-17T12:51:55;98233.03;;;13.65;84.72
59767;BME280;46248;58.364;25.582;2022-09-17T12:55:28;98256.31;;;13.60;83.23
59767;BME280;46248;58.364;25.582;2022-09-17T12:59:07;98249.84;;;13.46;84.47
59767;BME280;46248;58.364;25.582;2022-09-17T13:02:35;98265.31;;;13.32;85.14
59767;BME280;46248;58.364;25.582;2022-09-17T13:06:25;98264.94;;;13.26;85.99
59767;BME280;46248;58.364;25.582;2022-09-17T13:10:02;98271.09;;;13.35;85.57
59767;BME280;46248;58.364;25.582;2022-09-17T13:13:36;98272.72;;;13.36;85.50
59767;BME280;46248;58.364;25.582;2022-09-17T13:17:06;98268.59;;;13.34;85.63
59767;BME280;46248;58.364;25.582;2022-09-17T13:20:33;98263.81;;;13.29;85.03
59767;BME280;46248;58.364;25.582;2022-09-17T13:24:01;98272.94;;;13.25;84.88
59767;BME280;46248;58.364;25.582;2022-09-17T13:27:41;98277.44;;;13.15;84.15
59767;BME280;46248;58.364;25.582;2022-09-17T13:31:04;98282.97;;;13.12;84.66
59767;BME280;46248;58.364;25.582;2022-09-17T13:34:30;98290.19;;;13.10;85.76
59767;BME280;46248;58.364;25.582;2022-09-17T13:37:57;98277.59;;;13.13;85.70
59767;BME280;46248;58.364;25.582;2022-09-17T13:41:22;98289.56;;;13.25;86.14
59767;BME280;46248;58.364;25.582;2022-09-17T13:44:49;98282.09;;;13.21;85.39
59767;BME280;46248;58.364;25.582;2022-09-17T13:48:20;98288.16;;;13.21;85.44
59767;BME280;46248;58.364;25.582;2022-09-17T13:51:51;98290.75;;;13.31;86.20
59767;BME280;46248;58.364;25.582;2022-09-17T13:55:34;98294.28;;;13.40;85.59
59767;BME280;46248;58.364;25.582;2022-09-17T13:59:06;98299.53;;;13.40;84.71
59767;BME280;46248;58.364;25.582;2022-09-17T14:02:39;98304.78;;;13.40;85.15
59767;BME280;46248;58.364;25.582;2022-09-17T14:09:59;98308.22;;;13.58;84.82
59767;BME280;46248;58.364;25.582;2022-09-17T14:13:41;98316.06;;;13.50;83.81
59767;BME280;46248;58.364;25.582;2022-09-17T14:17:07;98315.31;;;13.40;84.21
59767;BME280;46248;58.364;25.582;2022-09-17T14:20:32;98311.63;;;13.33;84.62
59767;BME280;46248;58.364;25.582;2022-09-17T14:23:58;98311.41;;;13.26;84.92
59767;BME280;46248;58.364;25.582;2022-09-17T14:27:50;98313.31;;;13.24;85.39
59767;BME280;46248;58.364;25.582;2022-09-17T14:31:21;98315.84;;;13.25;85.39
59767;BME280;46248;58.364;25.582;2022-09-17T14:34:48;98312.47;;;13.33;85.43
59767;BME280;46248;58.364;25.582;2022-09-17T14:38:14;98307.94;;;13.43;85.25
59767;BME280;46248;58.364;25.582;2022-09-17T14:41:39;98317.50;;;13.44;84.03
59767;BME280;46248;58.364;25.582;2022-09-17T14:45:07;98306.50;;;13.49;84.18
59767;BME280;46248;58.364;25.582;2022-09-17T14:48:37;98319.75;;;13.57;83.55
59767;BME280;46248;58.364;25.582;2022-09-17T14:52:18;98310.72;;;13.60;82.96
59767;BME280;46248;58.364;25.582;2022-09-17T14:55:46;98321.25;;;13.60;83.06
59767;BME280;46248;58.364;25.582;2022-09-17T14:59:18;98327.94;;;13.54;82.44
59767;BME280;46248;58.364;25.582;2022-09-17T15:02:43;98323.19;;;13.40;83.10
59767;BME280;46248;58.364;25.582;2022-09-17T15:06:19;98327.09;;;13.36;83.24
59767;BME280;46248;58.364;25.582;2022-09-17T15:09:44;98332.44;;;13.26;83.23
59767;BME280;46248;58.364;25.582;2022-09-17T15:13:11;98330.22;;;13.21;83.29
59767;BME280;46248;58.364;25.582;2022-09-17T15:16:35;98334.66;;;13.21;83.84
59767;BME280;46248;58.364;25.582;2022-09-17T15:20:02;98341.03;;;13.18;84.43
59767;BME280;46248;58.364;25.582;2022-09-17T15:23:28;98344.03;;;13.23;84.36
59767;BME280;46248;58.364;25.582;2022-09-17T15:27:10;98332.84;;;13.21;84.21
59767;BME280;46248;58.364;25.582;2022-09-17T15:30:34;98344.63;;;13.17;84.23
59767;BME280;46248;58.364;25.582;2022-09-17T15:33:58;98343.03;;;13.06;84.07
59767;BME280;46248;58.364;25.582;2022-09-17T15:37:24;98357.19;;;12.96;84.13
59767;BME280;46248;58.364;25.582;2022-09-17T15:40:50;98360.25;;;12.91;84.87
59767;BME280;46248;58.364;25.582;2022-09-17T15:44:19;98354.94;;;12.83;85.01
59767;BME280;46248;58.364;25.582;2022-09-17T15:47:52;98376.34;;;12.78;85.49
59767;BME280;46248;58.364;25.582;2022-09-17T15:51:23;98370.69;;;12.73;85.75
59767;BME280;46248;58.364;25.582;2022-09-17T15:54:46;98388.97;;;12.75;85.19
59767;BME280;46248;58.364;25.582;2022-09-17T15:58:22;98387.56;;;12.71;85.78
59767;BME280;46248;58.364;25.582;2022-09-17T16:01:56;98396.72;;;12.67;86.12
59767;BME280;46248;58.364;25.582;2022-09-17T16:05:49;98400.06;;;12.59;85.80
59767;BME280;46248;58.364;25.582;2022-09-17T16:09:38;98404.91;;;12.54;85.86
59767;BME280;46248;58.364;25.582;2022-09-17T16:13:01;98411.44;;;12.50;86.19
59767;BME280;46248;58.364;25.582;2022-09-17T16:16:27;98424.69;;;12.48;85.95
59767;BME280;46248;58.364;25.582;2022-09-17T16:19:54;98419.88;;;12.44;85.66
59767;BME280;46248;58.364;25.582;2022-09-17T16:23:20;98432.16;;;12.43;85.76
59767;BME280;46248;58.364;25.582;2022-09-17T16:26:43;98443.91;;;12.39;86.07
59767;BME280;46248;58.364;25.582;2022-09-17T16:30:12;98455.66;;;12.35;86.41
59767;BME280;46248;58.364;25.582;2022-09-17T16:33:35;98455.09;;;12.31;86.98
59767;BME280;46248;58.364;25.582;2022-09-17T16:36:59;98458.56;;;12.32;87.11
59767;BME280;46248;58.364;25.582;2022-09-17T16:40:23;98467.53;;;12.29;87.56
59767;BME280;46248;58.364;25.582;2022-09-17T16:43:47;98473.34;;;12.23;87.34
59767;BME280;46248;58.364;25.582;2022-09-17T16:47:10;98480.25;;;12.14;87.45
59767;BME280;46248;58.364;25.582;2022-09-17T16:50:33;98486.19;;;12.07;87.30
59767;BME280;46248;58.364;25.582;2022-09-17T16:53:59;98495.16;;;12.04;87.29
59767;BME280;46248;58.364;25.582;2022-09-17T16:57:23;98499.00;;;12.00;87.18
59767;BME280;46248;58.364;25.582;2022-09-17T17:00:46;98501.91;;;11.97;86.92
59767;BME280;46248;58.364;25.582;2022-09-17T17:04:09;98495.41;;;11.91;87.52
59767;BME280;46248;58.364;25.582;2022-09-17T17:07:33;98499.78;;;11.81;87.17
59767;BME280;46248;58.364;25.582;2022-09-17T17:10:58;98518.97;;;11.72;86.58
59767;BME280;46248;58.364;25.582;2022-09-17T17:14:21;98520.59;;;11.63;86.21
59767;BME280;46248;58.364;25.582;2022-09-17T17:17:43;98521.41;;;11.54;86.06
59767;BME280;46248;58.364;25.582;2022-09-17T17:21:08;98535.03;;;11.48;86.38
59767;BME280;46248;58.364;25.582;2022-09-17T17:24:31;98527.81;;;11.40;86.10
59767;BME280;46248;58.364;25.582;2022-09-17T17:27:55;98533.22;;;11.39;86.53
59767;BME280;46248;58.364;25.582;2022-09-17T17:31:18;98543.13;;;11.35;86.54
59767;BME280;46248;58.364;25.582;2022-09-17T17:34:41;98539.34;;;11.28;86.93
59767;BME280;46248;58.364;25.582;2022-09-17T17:38:05;98542.94;;;11.27;86.98
59767;BME280;46248;58.364;25.582;2022-09-17T17:41:28;98553.69;;;11.24;87.58
59767;BME280;46248;58.364;25.582;2022-09-17T17:44:52;98558.38;;;11.20;87.95
59767;BME280;46248;58.364;25.582;2022-09-17T17:48:16;98548.25;;;11.16;88.69
59767;BME280;46248;58.364;25.582;2022-09-17T17:51:38;98561.25;;;11.17;88.78
59767;BME280;46248;58.364;25.582;2022-09-17T17:55:02;98565.66;;;11.17;89.16
59767;BME280;46248;58.364;25.582;2022-09-17T17:58:25;98574.59;;;11.14;88.96
59767;BME280;46248;58.364;25.582;2022-09-17T18:01:49;98570.31;;;11.13;89.52
59767;BME280;46248;58.364;25.582;2022-09-17T18:05:12;98584.13;;;11.15;89.58
59767;BME280;46248;58.364;25.582;2022-09-17T18:08:35;98590.31;;;11.14;89.49
59767;BME280;46248;58.364;25.582;2022-09-17T18:11:59;98592.78;;;11.16;90.00
59767;BME280;46248;58.364;25.582;2022-09-17T18:15:22;98590.19;;;11.16;89.71
59767;BME280;46248;58.364;25.582;2022-09-17T18:18:47;98597.34;;;11.14;89.77
59767;BME280;46248;58.364;25.582;2022-09-17T18:22:10;98597.47;;;11.12;89.38